sensor_id;sensor_type;location;lat;lon;timestamp;P1;durP1;ratioP1;P2;durP2;ratioP2
61385;SDS011;47256;18.904;-99.054;2022-10-10T00:01:16;5.57;;;2.08;;
61385;SDS011;47256;18.904;-99.054;2022-10-10T00:03:44;1.77;;;1.65;;
61385;SDS011;47256;18.904;-99.054;2022-10-10T00:06:14;4.93;;;2.22;;
61385;SDS011;47256;18.904;-99.054;2022-10-10T00:08:42;6.18;;;1.77;;
61385;SDS011;47256;18.904;-99.054;2022-10-10T00:11:10;2.35;;;1.77;;
61385;SDS011;47256;18.904;-99.054;2022-10-10T00:13:41;7.90;;;2.17;;
61385;SDS011;47256;18.904;-99.054;2022-10-10T00:16:09;4.63;;;2.00;;
61385;SDS011;47256;18.904;-99.054;2022-10-10T00:18:37;5.30;;;1.90;;
61385;SDS011;47256;18.904;-99.054;2022-10-10T00:21:05;4.22;;;1.75;;
61385;SDS011;47256;18.904;-99.054;2022-10-10T00:23:34;4.65;;;1.95;;
61385;SDS011;47256;18.904;-99.054;2022-10-10T00:26:01;10.82;;;2.20;;
61385;SDS011;47256;18.904;-99.054;2022-10-10T00:28:30;5.85;;;2.42;;
61385;SDS011;47256;18.904;-99.054;2022-10-10T00:30:58;3.97;;;2.30;;
61385;SDS011;47256;18.904;-99.054;2022-10-10T00:33:25;6.15;;;2.40;;
61385;SDS011;47256;18.904;-99.054;2022-10-10T00:35:52;17.55;;;2.58;;
61385;SDS011;47256;18.904;-99.054;2022-10-10T00:38:20;11.90;;;4.13;;
61385;SDS011;47256;18.904;-99.054;2022-10-10T00:40:49;10.57;;;3.05;;
61385;SDS011;47256;18.904;-99.054;2022-10-10T00:43:22;11.32;;;2.88;;
61385;SDS011;47256;18.904;-99.054;2022-10-10T00:45:52;12.85;;;2.47;;
61385;SDS011;47256;18.904;-99.054;2022-10-10T00:48:24;4.00;;;2.30;;
61385;SDS011;47256;18.904;-99.054;2022-10-10T00:50:58;7.07;;;3.80;;
61385;SDS011;47256;18.904;-99.054;2022-10-10T00:53:39;10.35;;;3.80;;
61385;SDS011;47256;18.904;-99.054;2022-10-10T00:56:12;10.80;;;3.28;;
61385;SDS011;47256;18.904;-99.054;2022-10-10T00:58:43;10.65;;;3.63;;
61385;SDS011;47256;18.904;-99.054;2022-10-10T01:01:17;11.02;;;4.05;;
61385;SDS011;47256;18.904;-99.054;2022-10-10T01:03:44;7.30;;;2.95;;
61385;SDS011;47256;18.904;-99.054;2022-10-10T01:06:13;7.18;;;2.78;;
61385;SDS011;47256;18.904;-99.054;2022-10-10T01:08:40;31.08;;;3.90;;
61385;SDS011;47256;18.904;-99.054;2022-10-10T01:14:18;6.70;;;2.47;;
61385;SDS011;47256;18.904;-99.054;2022-10-10T01:17:18;6.22;;;2.38;;
61385;SDS011;47256;18.904;-99.054;2022-10-10T01:23:30;7.55;;;2.90;;
61385;SDS011;47256;18.904;-99.054;2022-10-10T01:30:02;8.48;;;2.55;;
61385;SDS011;47256;18.904;-99.054;2022-10-10T01:35:06;8.98;;;2.53;;
61385;SDS011;47256;18.904;-99.054;2022-10-10T01:43:22;11.27;;;3.47;;
61385;SDS011;47256;18.904;-99.054;2022-10-10T01:45:52;9.93;;;3.45;;
61385;SDS011;47256;18.904;-99.054;2022-10-10T01:48:29;11.38;;;3.45;;
61385;SDS011;47256;18.904;-99.054;2022-10-10T01:53:56;12.40;;;3.92;;
61385;SDS011;47256;18.904;-99.054;2022-10-10T02:05:52;10.20;;;3.78;;
61385;SDS011;47256;18.904;-99.054;2022-10-10T02:08:34;18.65;;;4.05;;
61385;SDS011;47256;18.904;-99.054;2022-10-10T02:11:22;10.10;;;3.80;;
61385;SDS011;47256;18.904;-99.054;2022-10-10T02:13:56;11.07;;;3.85;;
61385;SDS011;47256;18.904;-99.054;2022-10-10T02:16:36;6.45;;;3.67;;
61385;SDS011;47256;18.904;-99.054;2022-10-10T02:19:09;9.57;;;3.80;;
61385;SDS011;47256;18.904;-99.054;2022-10-10T02:21:43;8.77;;;3.45;;
61385;SDS011;47256;18.904;-99.054;2022-10-10T02:24:13;12.50;;;4.35;;
61385;SDS011;47256;18.904;-99.054;2022-10-10T02:26:45;12.07;;;3.92;;
61385;SDS011;47256;18.904;-99.054;2022-10-10T02:29:23;9.65;;;3.97;;
61385;SDS011;47256;18.904;-99.054;2022-10-10T02:32:18;7.40;;;3.85;;
61385;SDS011;47256;18.904;-99.054;2022-10-10T02:34:52;8.82;;;3.33;;
61385;SDS011;47256;18.904;-99.054;2022-10-10T02:37:22;8.73;;;3.40;;
61385;SDS011;47256;18.904;-99.054;2022-10-10T02:39:54;11.18;;;5.55;;
61385;SDS011;47256;18.904;-99.054;2022-10-10T02:42:29;9.07;;;4.57;;
61385;SDS011;47256;18.904;-99.054;2022-10-10T02:44:58;9.55;;;4.97;;
61385;SDS011;47256;18.904;-99.054;2022-10-10T02:47:26;9.98;;;5.90;;
61385;SDS011;47256;18.904;-99.054;2022-10-10T02:49:54;16.90;;;7.15;;
61385;SDS011;47256;18.904;-99.054;2022-10-10T02:52:22;16.65;;;4.90;;
61385;SDS011;47256;18.904;-99.054;2022-10-10T02:54:51;15.07;;;5.05;;
61385;SDS011;47256;18.904;-99.054;2022-10-10T02:57:19;10.35;;;4.18;;
61385;SDS011;47256;18.904;-99.054;2022-10-10T02:59:47;12.70;;;5.07;;
61385;SDS011;47256;18.904;-99.054;2022-10-10T03:02:14;11.68;;;4.43;;
61385;SDS011;47256;18.904;-99.054;2022-10-10T03:04:43;7.65;;;4.00;;
61385;SDS011;47256;18.904;-99.054;2022-10-10T03:07:13;8.23;;;3.78;;
61385;SDS011;47256;18.904;-99.054;2022-10-10T03:09:41;9.80;;;3.80;;
61385;SDS011;47256;18.904;-99.054;2022-10-10T03:12:09;5.80;;;3.83;;
61385;SDS011;47256;18.904;-99.054;2022-10-10T03:14:36;14.65;;;7.30;;
61385;SDS011;47256;18.904;-99.054;2022-10-10T03:17:04;15.27;;;5.47;;
61385;SDS011;47256;18.904;-99.054;2022-10-10T03:19:33;8.98;;;3.67;;
61385;SDS011;47256;18.904;-99.054;2022-10-10T03:22:01;2.33;;;1.42;;
61385;SDS011;47256;18.904;-99.054;2022-10-10T03:24:29;4.88;;;2.50;;
61385;SDS011;47256;18.904;-99.054;2022-10-10T03:26:57;7.45;;;3.42;;
61385;SDS011;47256;18.904;-99.054;2022-10-10T03:29:24;9.48;;;3.15;;
61385;SDS011;47256;18.904;-99.054;2022-10-10T03:31:52;8.35;;;3.40;;
61385;SDS011;47256;18.904;-99.054;2022-10-10T03:34:19;6.68;;;2.50;;
61385;SDS011;47256;18.904;-99.054;2022-10-10T03:36:46;4.85;;;2.72;;
61385;SDS011;47256;18.904;-99.054;2022-10-10T03:39:14;13.70;;;3.13;;
61385;SDS011;47256;18.904;-99.054;2022-10-10T03:41:41;7.63;;;2.90;;
61385;SDS011;47256;18.904;-99.054;2022-10-10T03:44:08;8.20;;;3.50;;
61385;SDS011;47256;18.904;-99.054;2022-10-10T03:46:36;4.65;;;2.83;;
61385;SDS011;47256;18.904;-99.054;2022-10-10T03:49:03;13.90;;;3.17;;
61385;SDS011;47256;18.904;-99.054;2022-10-10T03:51:30;14.88;;;3.72;;
61385;SDS011;47256;18.904;-99.054;2022-10-10T03:53:58;8.65;;;3.10;;
61385;SDS011;47256;18.904;-99.054;2022-10-10T03:56:26;5.10;;;2.55;;
61385;SDS011;47256;18.904;-99.054;2022-10-10T03:58:54;5.50;;;2.72;;
61385;SDS011;47256;18.904;-99.054;2022-10-10T04:01:29;8.63;;;2.78;;
61385;SDS011;47256;18.904;-99.054;2022-10-10T04:03:56;4.90;;;2.58;;
61385;SDS011;47256;18.904;-99.054;2022-10-10T04:06:25;10.98;;;2.70;;
61385;SDS011;47256;18.904;-99.054;2022-10-10T04:08:57;5.63;;;2.70;;
61385;SDS011;47256;18.904;-99.054;2022-10-10T04:11:24;12.57;;;2.67;;
61385;SDS011;47256;18.904;-99.054;2022-10-10T04:13:52;5.55;;;2.60;;
61385;SDS011;47256;18.904;-99.054;2022-10-10T04:16:20;8.88;;;2.58;;
61385;SDS011;47256;18.904;-99.054;2022-10-10T04:18:47;7.13;;;3.08;;
61385;SDS011;47256;18.904;-99.054;2022-10-10T04:21:15;4.97;;;2.25;;
61385;SDS011;47256;18.904;-99.054;2022-10-10T04:23:43;6.20;;;2.63;;
61385;SDS011;47256;18.904;-99.054;2022-10-10T04:26:10;3.42;;;1.92;;
61385;SDS011;47256;18.904;-99.054;2022-10-10T04:28:37;3.22;;;2.15;;
61385;SDS011;47256;18.904;-99.054;2022-10-10T04:31:05;2.95;;;1.80;;
61385;SDS011;47256;18.904;-99.054;2022-10-10T04:33:33;7.38;;;2.53;;
61385;SDS011;47256;18.904;-99.054;2022-10-10T04:36:00;5.70;;;1.75;;
61385;SDS011;47256;18.904;-99.054;2022-10-10T04:38:27;6.30;;;2.65;;
61385;SDS011;47256;18.904;-99.054;2022-10-10T04:40:55;8.40;;;2.95;;
61385;SDS011;47256;18.904;-99.054;2022-10-10T04:43:23;6.60;;;2.38;;
61385;SDS011;47256;18.904;-99.054;2022-10-10T04:45:50;11.00;;;2.67;;
61385;SDS011;47256;18.904;-99.054;2022-10-10T04:48:19;8.98;;;2.60;;
61385;SDS011;47256;18.904;-99.054;2022-10-10T04:50:53;8.45;;;3.25;;
61385;SDS011;47256;18.904;-99.054;2022-10-10T04:53:22;8.53;;;2.60;;
61385;SDS011;47256;18.904;-99.054;2022-10-10T04:55:50;6.85;;;2.67;;
61385;SDS011;47256;18.904;-99.054;2022-10-10T04:58:23;8.25;;;3.78;;
61385;SDS011;47256;18.904;-99.054;2022-10-10T05:00:52;9.40;;;3.75;;
61385;SDS011;47256;18.904;-99.054;2022-10-10T05:03:23;6.80;;;3.85;;
61385;SDS011;47256;18.904;-99.054;2022-10-10T05:05:52;10.95;;;3.70;;
61385;SDS011;47256;18.904;-99.054;2022-10-10T05:08:21;9.48;;;2.50;;
61385;SDS011;47256;18.904;-99.054;2022-10-10T05:10:50;4.82;;;2.75;;
61385;SDS011;47256;18.904;-99.054;2022-10-10T05:13:18;5.05;;;2.50;;
61385;SDS011;47256;18.904;-99.054;2022-10-10T05:15:48;9.13;;;2.80;;
61385;SDS011;47256;18.904;-99.054;2022-10-10T05:18:21;5.80;;;2.17;;
61385;SDS011;47256;18.904;-99.054;2022-10-10T05:20:48;5.30;;;2.50;;
61385;SDS011;47256;18.904;-99.054;2022-10-10T05:23:15;8.95;;;2.28;;
61385;SDS011;47256;18.904;-99.054;2022-10-10T05:25:49;4.93;;;2.13;;
61385;SDS011;47256;18.904;-99.054;2022-10-10T05:28:17;7.57;;;2.35;;
61385;SDS011;47256;18.904;-99.054;2022-10-10T05:30:44;18.67;;;2.70;;
61385;SDS011;47256;18.904;-99.054;2022-10-10T05:33:11;4.88;;;2.95;;
61385;SDS011;47256;18.904;-99.054;2022-10-10T05:35:38;4.07;;;2.25;;
61385;SDS011;47256;18.904;-99.054;2022-10-10T05:38:05;10.95;;;2.60;;
61385;SDS011;47256;18.904;-99.054;2022-10-10T05:40:33;3.28;;;2.35;;
61385;SDS011;47256;18.904;-99.054;2022-10-10T05:43:00;5.82;;;2.65;;
61385;SDS011;47256;18.904;-99.054;2022-10-10T05:45:27;4.13;;;2.22;;
61385;SDS011;47256;18.904;-99.054;2022-10-10T05:47:55;4.70;;;2.63;;
61385;SDS011;47256;18.904;-99.054;2022-10-10T05:50:30;4.57;;;2.50;;
61385;SDS011;47256;18.904;-99.054;2022-10-10T05:53:00;8.07;;;2.22;;
61385;SDS011;47256;18.904;-99.054;2022-10-10T05:55:27;7.43;;;2.65;;
61385;SDS011;47256;18.904;-99.054;2022-10-10T05:57:55;7.80;;;2.80;;
61385;SDS011;47256;18.904;-99.054;2022-10-10T06:00:22;4.95;;;2.75;;
61385;SDS011;47256;18.904;-99.054;2022-10-10T06:02:49;5.28;;;2.47;;
61385;SDS011;47256;18.904;-99.054;2022-10-10T06:05:17;5.38;;;2.60;;
61385;SDS011;47256;18.904;-99.054;2022-10-10T06:07:44;4.82;;;2.42;;
61385;SDS011;47256;18.904;-99.054;2022-10-10T06:10:11;6.68;;;2.63;;
61385;SDS011;47256;18.904;-99.054;2022-10-10T06:12:40;8.98;;;2.83;;
61385;SDS011;47256;18.904;-99.054;2022-10-10T06:15:07;9.80;;;3.33;;
61385;SDS011;47256;18.904;-99.054;2022-10-10T06:17:36;6.82;;;2.75;;
61385;SDS011;47256;18.904;-99.054;2022-10-10T06:20:03;6.63;;;3.25;;
61385;SDS011;47256;18.904;-99.054;2022-10-10T06:22:32;7.28;;;3.05;;
61385;SDS011;47256;18.904;-99.054;2022-10-10T06:24:58;7.82;;;2.90;;
61385;SDS011;47256;18.904;-99.054;2022-10-10T06:27:27;4.53;;;2.55;;
61385;SDS011;47256;18.904;-99.054;2022-10-10T06:29:53;5.40;;;2.50;;
61385;SDS011;47256;18.904;-99.054;2022-10-10T06:32:21;4.75;;;2.95;;
61385;SDS011;47256;18.904;-99.054;2022-10-10T06:34:48;10.27;;;2.88;;
61385;SDS011;47256;18.904;-99.054;2022-10-10T06:37:17;5.07;;;3.17;;
61385;SDS011;47256;18.904;-99.054;2022-10-10T06:39:44;4.38;;;2.55;;
61385;SDS011;47256;18.904;-99.054;2022-10-10T06:42:11;4.63;;;3.00;;
61385;SDS011;47256;18.904;-99.054;2022-10-10T06:44:38;8.55;;;3.00;;
61385;SDS011;47256;18.904;-99.054;2022-10-10T06:47:05;8.13;;;2.92;;
61385;SDS011;47256;18.904;-99.054;2022-10-10T06:49:33;7.18;;;2.60;;
61385;SDS011;47256;18.904;-99.054;2022-10-10T06:52:00;4.88;;;2.70;;
61385;SDS011;47256;18.904;-99.054;2022-10-10T06:54:27;4.60;;;3.08;;
61385;SDS011;47256;18.904;-99.054;2022-10-10T06:56:54;5.30;;;2.72;;
61385;SDS011;47256;18.904;-99.054;2022-10-10T06:59:21;8.23;;;2.95;;
61385;SDS011;47256;18.904;-99.054;2022-10-10T07:01:50;9.60;;;2.95;;
61385;SDS011;47256;18.904;-99.054;2022-10-10T07:04:17;9.77;;;2.80;;
61385;SDS011;47256;18.904;-99.054;2022-10-10T07:06:45;6.85;;;2.83;;
61385;SDS011;47256;18.904;-99.054;2022-10-10T07:09:12;4.80;;;2.90;;
61385;SDS011;47256;18.904;-99.054;2022-10-10T07:11:43;6.88;;;2.80;;
61385;SDS011;47256;18.904;-99.054;2022-10-10T07:14:10;6.07;;;2.30;;
61385;SDS011;47256;18.904;-99.054;2022-10-10T07:17:04;5.15;;;2.63;;
61385;SDS011;47256;18.904;-99.054;2022-10-10T07:19:31;5.90;;;2.10;;
61385;SDS011;47256;18.904;-99.054;2022-10-10T07:22:01;5.95;;;2.53;;
61385;SDS011;47256;18.904;-99.054;2022-10-10T07:24:28;5.50;;;2.40;;
61385;SDS011;47256;18.904;-99.054;2022-10-10T07:26:55;6.45;;;3.00;;
61385;SDS011;47256;18.904;-99.054;2022-10-10T07:29:24;2.58;;;2.13;;
61385;SDS011;47256;18.904;-99.054;2022-10-10T07:31:52;3.42;;;2.08;;
61385;SDS011;47256;18.904;-99.054;2022-10-10T07:34:22;3.05;;;2.10;;
61385;SDS011;47256;18.904;-99.054;2022-10-10T07:36:49;4.80;;;2.60;;
61385;SDS011;47256;18.904;-99.054;2022-10-10T07:39:20;6.93;;;2.03;;
61385;SDS011;47256;18.904;-99.054;2022-10-10T07:41:49;3.08;;;2.38;;
61385;SDS011;47256;18.904;-99.054;2022-10-10T07:44:19;3.20;;;2.28;;
61385;SDS011;47256;18.904;-99.054;2022-10-10T07:46:49;9.30;;;2.22;;
61385;SDS011;47256;18.904;-99.054;2022-10-10T07:49:16;8.07;;;1.98;;
61385;SDS011;47256;18.904;-99.054;2022-10-10T07:51:43;4.25;;;2.15;;
61385;SDS011;47256;18.904;-99.054;2022-10-10T07:54:10;2.53;;;1.70;;
61385;SDS011;47256;18.904;-99.054;2022-10-10T07:56:38;7.75;;;2.08;;
61385;SDS011;47256;18.904;-99.054;2022-10-10T07:59:05;2.45;;;1.70;;
61385;SDS011;47256;18.904;-99.054;2022-10-10T08:01:32;6.68;;;2.15;;
61385;SDS011;47256;18.904;-99.054;2022-10-10T08:03:59;5.93;;;1.65;;
61385;SDS011;47256;18.904;-99.054;2022-10-10T08:06:26;3.35;;;1.65;;
61385;SDS011;47256;18.904;-99.054;2022-10-10T08:08:53;2.80;;;2.05;;
61385;SDS011;47256;18.904;-99.054;2022-10-10T08:11:24;5.47;;;1.98;;
61385;SDS011;47256;18.904;-99.054;2022-10-10T08:13:51;6.32;;;1.80;;
61385;SDS011;47256;18.904;-99.054;2022-10-10T08:16:20;5.75;;;1.52;;
61385;SDS011;47256;18.904;-99.054;2022-10-10T08:18:46;2.03;;;1.60;;
61385;SDS011;47256;18.904;-99.054;2022-10-10T08:21:14;7.90;;;2.03;;
61385;SDS011;47256;18.904;-99.054;2022-10-10T08:23:41;7.38;;;1.83;;
61385;SDS011;47256;18.904;-99.054;2022-10-10T08:26:10;2.90;;;1.65;;
61385;SDS011;47256;18.904;-99.054;2022-10-10T08:28:39;3.28;;;1.48;;
61385;SDS011;47256;18.904;-99.054;2022-10-10T08:31:08;2.80;;;1.52;;
61385;SDS011;47256;18.904;-99.054;2022-10-10T08:33:38;2.67;;;1.50;;
61385;SDS011;47256;18.904;-99.054;2022-10-10T08:36:08;5.93;;;1.60;;
61385;SDS011;47256;18.904;-99.054;2022-10-10T08:38:38;7.70;;;1.85;;
61385;SDS011;47256;18.904;-99.054;2022-10-10T08:41:23;2.85;;;1.83;;
61385;SDS011;47256;18.904;-99.054;2022-10-10T08:44:24;4.35;;;1.48;;
61385;SDS011;47256;18.904;-99.054;2022-10-10T08:47:04;5.72;;;2.15;;
61385;SDS011;47256;18.904;-99.054;2022-10-10T08:49:50;6.97;;;1.70;;
61385;SDS011;47256;18.904;-99.054;2022-10-10T08:54:56;5.53;;;1.52;;
61385;SDS011;47256;18.904;-99.054;2022-10-10T08:57:33;3.78;;;1.67;;
61385;SDS011;47256;18.904;-99.054;2022-10-10T09:00:11;5.32;;;1.60;;
61385;SDS011;47256;18.904;-99.054;2022-10-10T09:14:46;3.25;;;1.30;;
61385;SDS011;47256;18.904;-99.054;2022-10-10T09:16:55;3.42;;;1.70;;
61385;SDS011;47256;18.904;-99.054;2022-10-10T09:22:24;2.95;;;1.42;;
61385;SDS011;47256;18.904;-99.054;2022-10-10T09:25:05;5.78;;;1.45;;
61385;SDS011;47256;18.904;-99.054;2022-10-10T09:28:01;2.97;;;1.40;;
61385;SDS011;47256;18.904;-99.054;2022-10-10T09:35:56;8.67;;;2.00;;
61385;SDS011;47256;18.904;-99.054;2022-10-10T09:38:31;4.82;;;1.63;;
61385;SDS011;47256;18.904;-99.054;2022-10-10T09:43:42;7.07;;;2.00;;
61385;SDS011;47256;18.904;-99.054;2022-10-10T09:46:10;4.63;;;1.58;;
61385;SDS011;47256;18.904;-99.054;2022-10-10T09:48:42;12.93;;;2.83;;
61385;SDS011;47256;18.904;-99.054;2022-10-10T09:51:13;2.92;;;1.77;;
61385;SDS011;47256;18.904;-99.054;2022-10-10T09:53:46;2.03;;;1.60;;
61385;SDS011;47256;18.904;-99.054;2022-10-10T09:56:20;2.85;;;1.30;;
61385;SDS011;47256;18.904;-99.054;2022-10-10T09:58:51;3.83;;;1.90;;
61385;SDS011;47256;18.904;-99.054;2022-10-10T10:01:24;4.13;;;1.85;;
61385;SDS011;47256;18.904;-99.054;2022-10-10T10:04:18;5.32;;;1.48;;
61385;SDS011;47256;18.904;-99.054;2022-10-10T10:06:48;2.25;;;1.33;;
61385;SDS011;47256;18.904;-99.054;2022-10-10T10:09:20;2.28;;;1.45;;
61385;SDS011;47256;18.904;-99.054;2022-10-10T10:11:55;7.82;;;2.17;;
61385;SDS011;47256;18.904;-99.054;2022-10-10T10:17:07;2.65;;;1.73;;
61385;SDS011;47256;18.904;-99.054;2022-10-10T10:19:38;3.65;;;2.10;;
61385;SDS011;47256;18.904;-99.054;2022-10-10T10:22:23;2.30;;;1.77;;
61385;SDS011;47256;18.904;-99.054;2022-10-10T10:24:56;6.03;;;1.90;;
61385;SDS011;47256;18.904;-99.054;2022-10-10T10:27:26;3.17;;;1.75;;
61385;SDS011;47256;18.904;-99.054;2022-10-10T10:29:56;6.18;;;1.90;;
61385;SDS011;47256;18.904;-99.054;2022-10-10T10:35:31;3.47;;;1.73;;
61385;SDS011;47256;18.904;-99.054;2022-10-10T10:38:20;8.02;;;2.00;;
61385;SDS011;47256;18.904;-99.054;2022-10-10T10:49:39;4.13;;;1.67;;
61385;SDS011;47256;18.904;-99.054;2022-10-10T10:55:24;5.68;;;1.75;;
61385;SDS011;47256;18.904;-99.054;2022-10-10T11:01:10;11.73;;;1.98;;
61385;SDS011;47256;18.904;-99.054;2022-10-10T11:03:48;10.45;;;1.85;;
61385;SDS011;47256;18.904;-99.054;2022-10-10T11:07:01;2.45;;;1.67;;
61385;SDS011;47256;18.904;-99.054;2022-10-10T11:09:47;14.35;;;2.45;;
61385;SDS011;47256;18.904;-99.054;2022-10-10T11:12:29;4.95;;;2.05;;
61385;SDS011;47256;18.904;-99.054;2022-10-10T11:15:02;8.68;;;2.67;;
61385;SDS011;47256;18.904;-99.054;2022-10-10T11:17:58;6.30;;;2.03;;
61385;SDS011;47256;18.904;-99.054;2022-10-10T11:20:39;8.50;;;2.00;;
61385;SDS011;47256;18.904;-99.054;2022-10-10T11:25:59;7.10;;;2.13;;
61385;SDS011;47256;18.904;-99.054;2022-10-10T11:28:38;6.43;;;1.70;;
61385;SDS011;47256;18.904;-99.054;2022-10-10T11:31:14;2.90;;;1.52;;
61385;SDS011;47256;18.904;-99.054;2022-10-10T11:34:14;5.95;;;1.38;;
61385;SDS011;47256;18.904;-99.054;2022-10-10T11:36:59;9.52;;;1.80;;
61385;SDS011;47256;18.904;-99.054;2022-10-10T11:39:38;7.22;;;1.90;;
61385;SDS011;47256;18.904;-99.054;2022-10-10T11:45:12;2.95;;;1.95;;
61385;SDS011;47256;18.904;-99.054;2022-10-10T11:48:25;7.03;;;2.55;;
61385;SDS011;47256;18.904;-99.054;2022-10-10T11:51:34;5.72;;;2.35;;
61385;SDS011;47256;18.904;-99.054;2022-10-10T11:56:59;6.43;;;2.40;;
61385;SDS011;47256;18.904;-99.054;2022-10-10T11:59:37;14.55;;;2.97;;
61385;SDS011;47256;18.904;-99.054;2022-10-10T12:02:13;10.52;;;2.58;;
61385;SDS011;47256;18.904;-99.054;2022-10-10T12:04:46;4.78;;;2.58;;
61385;SDS011;47256;18.904;-99.054;2022-10-10T12:07:18;7.60;;;2.38;;
61385;SDS011;47256;18.904;-99.054;2022-10-10T12:10:06;14.35;;;5.68;;
61385;SDS011;47256;18.904;-99.054;2022-10-10T12:12:42;12.27;;;3.40;;
61385;SDS011;47256;18.904;-99.054;2022-10-10T12:15:28;4.30;;;2.63;;
61385;SDS011;47256;18.904;-99.054;2022-10-10T12:18:01;6.25;;;2.03;;
61385;SDS011;47256;18.904;-99.054;2022-10-10T12:25:49;5.53;;;2.33;;
61385;SDS011;47256;18.904;-99.054;2022-10-10T12:31:30;4.15;;;1.90;;
61385;SDS011;47256;18.904;-99.054;2022-10-10T12:41:53;7.15;;;2.30;;
61385;SDS011;47256;18.904;-99.054;2022-10-10T12:49:48;3.65;;;2.17;;
61385;SDS011;47256;18.904;-99.054;2022-10-10T12:52:24;10.00;;;2.08;;
61385;SDS011;47256;18.904;-99.054;2022-10-10T12:55:03;6.70;;;2.10;;
61385;SDS011;47256;18.904;-99.054;2022-10-10T12:57:36;4.95;;;1.90;;
61385;SDS011;47256;18.904;-99.054;2022-10-10T13:00:18;7.35;;;2.03;;
61385;SDS011;47256;18.904;-99.054;2022-10-10T13:03:01;13.88;;;2.45;;
61385;SDS011;47256;18.904;-99.054;2022-10-10T13:05:35;9.27;;;2.08;;
61385;SDS011;47256;18.904;-99.054;2022-10-10T13:08:16;8.27;;;2.25;;
61385;SDS011;47256;18.904;-99.054;2022-10-10T13:13:34;10.80;;;2.03;;
61385;SDS011;47256;18.904;-99.054;2022-10-10T13:16:06;11.75;;;2.58;;
61385;SDS011;47256;18.904;-99.054;2022-10-10T13:18:49;17.33;;;2.10;;
61385;SDS011;47256;18.904;-99.054;2022-10-10T13:21:25;12.10;;;2.08;;
61385;SDS011;47256;18.904;-99.054;2022-10-10T13:23:57;6.35;;;1.92;;
61385;SDS011;47256;18.904;-99.054;2022-10-10T13:26:27;12.18;;;2.20;;
61385;SDS011;47256;18.904;-99.054;2022-10-10T13:28:56;8.63;;;2.00;;
61385;SDS011;47256;18.904;-99.054;2022-10-10T13:31:28;11.27;;;2.33;;
61385;SDS011;47256;18.904;-99.054;2022-10-10T13:34:02;8.45;;;2.20;;
61385;SDS011;47256;18.904;-99.054;2022-10-10T13:36:33;8.77;;;2.15;;
61385;SDS011;47256;18.904;-99.054;2022-10-10T13:39:01;11.48;;;3.75;;
61385;SDS011;47256;18.904;-99.054;2022-10-10T13:41:29;15.57;;;5.68;;
61385;SDS011;47256;18.904;-99.054;2022-10-10T13:43:56;13.00;;;4.00;;
61385;SDS011;47256;18.904;-99.054;2022-10-10T13:46:31;20.60;;;9.40;;
61385;SDS011;47256;18.904;-99.054;2022-10-10T13:48:59;21.48;;;9.68;;
61385;SDS011;47256;18.904;-99.054;2022-10-10T13:51:42;36.38;;;11.02;;
61385;SDS011;47256;18.904;-99.054;2022-10-10T13:55:12;27.75;;;6.97;;
61385;SDS011;47256;18.904;-99.054;2022-10-10T13:57:09;14.85;;;4.47;;
61385;SDS011;47256;18.904;-99.054;2022-10-10T13:59:40;17.07;;;4.57;;
61385;SDS011;47256;18.904;-99.054;2022-10-10T14:02:11;25.48;;;7.88;;
61385;SDS011;47256;18.904;-99.054;2022-10-10T14:04:43;25.48;;;9.02;;
61385;SDS011;47256;18.904;-99.054;2022-10-10T14:10:06;18.52;;;6.68;;
61385;SDS011;47256;18.904;-99.054;2022-10-10T14:12:41;34.75;;;7.55;;
61385;SDS011;47256;18.904;-99.054;2022-10-10T14:18:15;12.57;;;5.07;;
61385;SDS011;47256;18.904;-99.054;2022-10-10T14:20:47;9.52;;;4.45;;
61385;SDS011;47256;18.904;-99.054;2022-10-10T14:23:16;8.60;;;3.40;;
61385;SDS011;47256;18.904;-99.054;2022-10-10T14:25:45;12.45;;;3.60;;
61385;SDS011;47256;18.904;-99.054;2022-10-10T14:28:19;18.60;;;3.83;;
61385;SDS011;47256;18.904;-99.054;2022-10-10T14:30:51;12.18;;;3.78;;
61385;SDS011;47256;18.904;-99.054;2022-10-10T14:33:19;5.80;;;2.72;;
61385;SDS011;47256;18.904;-99.054;2022-10-10T14:35:47;5.95;;;3.10;;
61385;SDS011;47256;18.904;-99.054;2022-10-10T14:38:17;10.57;;;3.35;;
61385;SDS011;47256;18.904;-99.054;2022-10-10T14:40:45;8.05;;;3.13;;
61385;SDS011;47256;18.904;-99.054;2022-10-10T14:43:14;8.13;;;2.60;;
61385;SDS011;47256;18.904;-99.054;2022-10-10T14:45:43;7.93;;;1.98;;
61385;SDS011;47256;18.904;-99.054;2022-10-10T14:48:10;4.05;;;2.08;;
61385;SDS011;47256;18.904;-99.054;2022-10-10T14:50:40;13.98;;;3.55;;
61385;SDS011;47256;18.904;-99.054;2022-10-10T14:53:10;11.57;;;4.50;;
61385;SDS011;47256;18.904;-99.054;2022-10-10T14:55:38;15.65;;;5.07;;
61385;SDS011;47256;18.904;-99.054;2022-10-10T14:58:16;11.75;;;5.32;;
61385;SDS011;47256;18.904;-99.054;2022-10-10T15:00:49;14.45;;;4.60;;
61385;SDS011;47256;18.904;-99.054;2022-10-10T15:03:17;10.68;;;3.22;;
61385;SDS011;47256;18.904;-99.054;2022-10-10T15:05:45;6.60;;;2.75;;
61385;SDS011;47256;18.904;-99.054;2022-10-10T15:08:16;7.97;;;2.78;;
61385;SDS011;47256;18.904;-99.054;2022-10-10T15:10:44;5.65;;;2.70;;
61385;SDS011;47256;18.904;-99.054;2022-10-10T15:13:13;8.77;;;3.25;;
61385;SDS011;47256;18.904;-99.054;2022-10-10T15:15:42;4.45;;;2.75;;
61385;SDS011;47256;18.904;-99.054;2022-10-10T15:18:11;4.22;;;2.15;;
61385;SDS011;47256;18.904;-99.054;2022-10-10T15:20:41;3.97;;;2.05;;
61385;SDS011;47256;18.904;-99.054;2022-10-10T15:23:08;8.85;;;3.00;;
61385;SDS011;47256;18.904;-99.054;2022-10-10T15:25:36;7.03;;;3.10;;
61385;SDS011;47256;18.904;-99.054;2022-10-10T15:28:09;3.75;;;2.15;;
61385;SDS011;47256;18.904;-99.054;2022-10-10T15:30:36;2.83;;;1.67;;
61385;SDS011;47256;18.904;-99.054;2022-10-10T15:33:04;9.38;;;1.60;;
61385;SDS011;47256;18.904;-99.054;2022-10-10T15:35:31;5.80;;;2.60;;
61385;SDS011;47256;18.904;-99.054;2022-10-10T15:37:58;9.60;;;3.40;;
61385;SDS011;47256;18.904;-99.054;2022-10-10T15:40:27;10.63;;;3.58;;
61385;SDS011;47256;18.904;-99.054;2022-10-10T15:42:55;6.35;;;2.75;;
61385;SDS011;47256;18.904;-99.054;2022-10-10T15:45:23;7.78;;;3.00;;
61385;SDS011;47256;18.904;-99.054;2022-10-10T15:47:50;6.72;;;2.75;;
61385;SDS011;47256;18.904;-99.054;2022-10-10T15:50:21;6.05;;;3.35;;
61385;SDS011;47256;18.904;-99.054;2022-10-10T15:52:48;8.48;;;3.28;;
61385;SDS011;47256;18.904;-99.054;2022-10-10T15:55:15;3.38;;;2.55;;
61385;SDS011;47256;18.904;-99.054;2022-10-10T15:57:42;6.05;;;2.33;;
61385;SDS011;47256;18.904;-99.054;2022-10-10T16:00:13;5.68;;;2.63;;
61385;SDS011;47256;18.904;-99.054;2022-10-10T16:02:41;8.43;;;2.05;;
61385;SDS011;47256;18.904;-99.054;2022-10-10T16:05:08;3.63;;;2.10;;
61385;SDS011;47256;18.904;-99.054;2022-10-10T16:07:36;4.00;;;2.00;;
61385;SDS011;47256;18.904;-99.054;2022-10-10T16:10:03;11.35;;;2.60;;
61385;SDS011;47256;18.904;-99.054;2022-10-10T16:12:31;5.93;;;2.13;;
61385;SDS011;47256;18.904;-99.054;2022-10-10T16:14:58;5.43;;;1.95;;
61385;SDS011;47256;18.904;-99.054;2022-10-10T16:17:25;6.47;;;2.63;;
61385;SDS011;47256;18.904;-99.054;2022-10-10T16:19:53;12.55;;;4.35;;
61385;SDS011;47256;18.904;-99.054;2022-10-10T16:22:20;5.20;;;2.70;;
61385;SDS011;47256;18.904;-99.054;2022-10-10T16:24:48;7.82;;;3.83;;
61385;SDS011;47256;18.904;-99.054;2022-10-10T16:27:15;10.77;;;3.50;;
61385;SDS011;47256;18.904;-99.054;2022-10-10T16:29:42;6.93;;;2.83;;
61385;SDS011;47256;18.904;-99.054;2022-10-10T16:32:09;10.90;;;2.35;;
61385;SDS011;47256;18.904;-99.054;2022-10-10T16:34:37;9.93;;;2.50;;
61385;SDS011;47256;18.904;-99.054;2022-10-10T16:37:04;7.38;;;2.20;;
61385;SDS011;47256;18.904;-99.054;2022-10-10T16:39:33;6.78;;;2.33;;